Time;durP1;ratioP1;P1;durP2;ratioP2;P2;SDS_P1;SDS_P2;PMS_P1;PMS_P2;Temp;Humidity;BMP_temperature;BMP_pressure;BME280_temperature;BME280_humidity;BME280_pressure;Samples;Min_cycle;Max_cycle;Signal;HPM_P1;HPM_P2
2023/06/29 00:02:24;;;;;;;;;;;16.10;99.90;;;;;;5065896;28;19921;-70
2023/06/29 00:04:51;;;;;;;;;;;16.10;99.90;;;;;;5065398;28;19988;-69
2023/06/29 00:07:24;;;;;;;;;;;16.00;99.90;;;;;;5062369;28;19927;-70
2023/06/29 00:09:52;;;;;;;;;;;16.00;99.90;;;;;;5065424;28;19927;-70
2023/06/29 00:12:18;;;;;;;;;;;16.00;99.90;;;;;;5081841;28;19925;-70
2023/06/29 00:14:46;;;;;;;;;;;15.90;99.90;;;;;;5085576;28;19927;-70
2023/06/29 00:17:16;;;;;;;;;;;15.90;99.90;;;;;;5084835;28;19921;-69
2023/06/29 00:19:42;;;;;;;;;;;15.80;99.90;;;;;;5085653;28;20143;-70
2023/06/29 00:22:10;;;;;;;;;;;15.90;99.90;;;;;;5080102;28;19921;-70
2023/06/29 00:24:42;;;;;;;;;;;15.80;99.90;;;;;;5064724;28;20028;-70
2023/06/29 00:27:09;;;;;;;;;;;15.80;99.90;;;;;;5063480;28;19920;-70
2023/06/29 00:29:35;;;;;;;;;;;15.80;99.90;;;;;;5065337;28;19993;-70
2023/06/29 00:32:04;;;;;;;;;;;15.70;99.90;;;;;;5064848;28;19947;-70
2023/06/29 00:34:30;;;;;;;;;;;15.70;99.90;;;;;;5064850;28;19921;-70
2023/06/29 00:36:57;;;;;;;;;;;15.70;99.90;;;;;;5064597;28;19952;-70
2023/06/29 00:39:23;;;;;;;;;;;15.60;99.90;;;;;;5064889;28;19988;-69
2023/06/29 00:41:53;;;;;;;;;;;15.50;99.90;;;;;;5065213;28;19996;-70
2023/06/29 00:44:20;;;;;;;;;;;15.50;99.90;;;;;;5065319;28;19921;-70
2023/06/29 00:46:47;;;;;;;;;;;15.40;99.90;;;;;;5063975;28;19980;-69
2023/06/29 00:49:15;;;;;;;;;;;15.30;99.90;;;;;;5064820;28;19988;-71
2023/06/29 00:51:42;;;;;;;;;;;15.20;99.90;;;;;;5064817;28;19927;-70
2023/06/29 00:54:08;;;;;;;;;;;15.20;99.90;;;;;;5064714;28;20204;-70
2023/06/29 00:56:35;;;;;;;;;;;15.10;99.90;;;;;;5063068;28;19931;-70
2023/06/29 00:59:02;;;;;;;;;;;15.10;99.90;;;;;;5064617;28;19987;-70
2023/06/29 01:01:29;;;;;;;;;;;15.10;99.90;;;;;;5064879;28;19920;-70
2023/06/29 01:03:57;;;;;;;;;;;15.00;99.90;;;;;;5064755;28;19920;-70
2023/06/29 01:06:29;;;;;;;;;;;15.00;99.90;;;;;;5064093;28;19964;-70
2023/06/29 01:08:59;;;;;;;;;;;15.00;99.90;;;;;;5064749;28;19920;-70
2023/06/29 01:11:25;;;;;;;;;;;15.00;99.90;;;;;;5064653;28;19992;-70
2023/06/29 01:13:53;;;;;;;;;;;15.00;99.90;;;;;;5064695;28;19928;-70
2023/06/29 01:16:21;;;;;;;;;;;14.90;99.90;;;;;;5063758;28;19921;-71
2023/06/29 01:18:48;;;;;;;;;;;14.90;99.90;;;;;;5064371;28;19988;-70
2023/06/29 01:21:15;;;;;;;;;;;14.80;99.90;;;;;;5064396;28;19921;-70
2023/06/29 01:23:45;;;;;;;;;;;14.70;99.90;;;;;;5064218;28;19927;-69
2023/06/29 01:26:13;;;;;;;;;;;14.70;99.90;;;;;;5063541;28;19921;-70
2023/06/29 01:28:39;;;;;;;;;;;14.70;99.90;;;;;;5064053;28;19980;-70
2023/06/29 01:31:06;;;;;;;;;;;14.70;99.90;;;;;;5064148;28;19960;-70
2023/06/29 01:33:33;;;;;;;;;;;14.70;99.90;;;;;;5064225;28;19920;-70
2023/06/29 01:36:04;;;;;;;;;;;14.70;99.90;;;;;;5063430;28;19947;-70
2023/06/29 01:38:35;;;;;;;;;;;14.70;99.90;;;;;;5063554;28;20282;-70
2023/06/29 01:41:02;;;;;;;;;;;14.70;99.90;;;;;;5064301;28;19927;-70
2023/06/29 01:43:30;;;;;;;;;;;14.60;99.90;;;;;;5064085;28;19985;-70
2023/06/29 01:45:57;;;;;;;;;;;14.60;99.90;;;;;;5062952;28;19952;-70
2023/06/29 01:48:24;;;;;;;;;;;14.60;99.90;;;;;;5064164;28;20050;-70
2023/06/29 01:50:51;;;;;;;;;;;14.50;99.90;;;;;;5063051;28;20205;-70
2023/06/29 01:53:17;;;;;;;;;;;14.40;99.90;;;;;;5063723;28;19956;-69
2023/06/29 01:55:44;;;;;;;;;;;14.40;99.90;;;;;;5062977;28;19995;-70
2023/06/29 01:58:18;;;;;;;;;;;14.30;99.90;;;;;;5050898;28;19921;-70
2023/06/29 02:00:46;;;;;;;;;;;14.30;99.90;;;;;;5043927;28;19921;-70
2023/06/29 02:03:12;;;;;;;;;;;14.20;99.90;;;;;;5043483;28;19984;-71
2023/06/29 02:05:39;;;;;;;;;;;14.20;99.90;;;;;;5042849;28;19959;-71
2023/06/29 02:08:05;;;;;;;;;;;14.20;99.90;;;;;;5043883;28;19953;-71
2023/06/29 02:10:32;;;;;;;;;;;14.20;99.90;;;;;;5043648;28;19937;-70
2023/06/29 02:12:59;;;;;;;;;;;14.10;99.90;;;;;;5043462;28;19976;-70
2023/06/29 02:15:25;;;;;;;;;;;14.10;99.90;;;;;;5042772;28;19984;-71
2023/06/29 02:17:54;;;;;;;;;;;14.00;99.90;;;;;;5043377;28;20239;-70
2023/06/29 02:20:20;;;;;;;;;;;14.00;99.90;;;;;;5043640;28;19988;-71
2023/06/29 02:22:47;;;;;;;;;;;13.90;99.90;;;;;;5043640;28;19927;-71
2023/06/29 02:25:14;;;;;;;;;;;13.90;99.90;;;;;;5042704;28;19988;-71
2023/06/29 02:27:40;;;;;;;;;;;13.90;99.90;;;;;;5042874;28;20124;-71
2023/06/29 02:30:08;;;;;;;;;;;13.80;99.90;;;;;;5043440;28;20061;-70
2023/06/29 02:32:34;;;;;;;;;;;13.80;99.90;;;;;;5043534;28;19921;-71
2023/06/29 02:35:03;;;;;;;;;;;13.80;99.90;;;;;;5043145;28;19959;-70
2023/06/29 02:37:29;;;;;;;;;;;13.80;99.90;;;;;;5042853;28;20132;-70
2023/06/29 02:39:56;;;;;;;;;;;13.80;99.90;;;;;;5043154;28;19930;-71
2023/06/29 02:42:23;;;;;;;;;;;13.70;99.90;;;;;;5043384;28;19968;-71
2023/06/29 02:44:50;;;;;;;;;;;13.70;99.90;;;;;;5040682;28;19921;-71
2023/06/29 02:47:17;;;;;;;;;;;13.70;99.90;;;;;;5051968;28;20006;-71
2023/06/29 02:49:43;;;;;;;;;;;13.70;99.90;;;;;;5062292;28;19952;-70
2023/06/29 02:52:11;;;;;;;;;;;13.60;99.90;;;;;;5043064;28;19992;-70
2023/06/29 02:54:38;;;;;;;;;;;13.60;99.90;;;;;;5043235;28;19921;-70
2023/06/29 02:57:05;;;;;;;;;;;13.50;99.90;;;;;;5042536;28;19984;-70
2023/06/29 02:59:32;;;;;;;;;;;13.50;99.90;;;;;;5062804;28;20209;-70
2023/06/29 03:01:58;;;;;;;;;;;13.40;99.90;;;;;;5062967;28;19988;-71
2023/06/29 03:04:25;;;;;;;;;;;13.40;99.90;;;;;;5065889;28;19920;-70
2023/06/29 03:06:51;;;;;;;;;;;13.40;99.90;;;;;;5066216;28;19921;-70
2023/06/29 03:09:20;;;;;;;;;;;13.40;99.90;;;;;;5066754;28;19920;-71
2023/06/29 03:11:46;;;;;;;;;;;13.40;99.90;;;;;;5067072;28;19921;-70
2023/06/29 03:14:13;;;;;;;;;;;13.40;99.90;;;;;;5066937;28;19920;-72
2023/06/29 03:16:39;;;;;;;;;;;13.40;99.90;;;;;;5066186;28;19927;-74
2023/06/29 03:19:06;;;;;;;;;;;13.40;99.90;;;;;;5066910;28;19988;-71
2023/06/29 03:21:33;;;;;;;;;;;13.30;99.90;;;;;;5066830;28;19924;-70
2023/06/29 03:23:59;;;;;;;;;;;13.30;99.90;;;;;;5066754;28;19974;-71
2023/06/29 03:26:27;;;;;;;;;;;13.30;99.90;;;;;;5065675;28;20000;-71
2023/06/29 03:28:54;;;;;;;;;;;13.20;99.90;;;;;;5066631;28;19957;-70
2023/06/29 03:31:20;;;;;;;;;;;13.20;99.90;;;;;;5066695;28;20112;-70
2023/06/29 03:33:47;;;;;;;;;;;13.20;99.90;;;;;;5066363;28;19963;-71
2023/06/29 03:36:15;;;;;;;;;;;13.20;99.90;;;;;;5065822;28;19989;-71
2023/06/29 03:38:41;;;;;;;;;;;13.20;99.90;;;;;;5066352;28;19921;-71
2023/06/29 03:41:08;;;;;;;;;;;13.20;99.90;;;;;;5066394;28;19984;-70
2023/06/29 03:43:36;;;;;;;;;;;13.10;99.90;;;;;;5057019;28;20141;-71
2023/06/29 03:46:03;;;;;;;;;;;13.10;99.90;;;;;;5055070;28;19921;-71
2023/06/29 03:48:29;;;;;;;;;;;13.10;99.90;;;;;;5052477;28;19984;-71
2023/06/29 03:50:57;;;;;;;;;;;13.10;99.90;;;;;;5045889;28;19921;-71
2023/06/29 03:53:23;;;;;;;;;;;13.10;99.90;;;;;;5045963;28;19963;-71
2023/06/29 03:55:50;;;;;;;;;;;13.10;99.90;;;;;;5045346;28;19963;-71
2023/06/29 03:58:17;;;;;;;;;;;13.00;99.90;;;;;;5045980;28;19921;-71
2023/06/29 04:00:45;;;;;;;;;;;13.00;99.90;;;;;;5045860;28;20163;-71
2023/06/29 04:03:11;;;;;;;;;;;13.00;99.90;;;;;;5046168;28;20148;-71
2023/06/29 04:05:38;;;;;;;;;;;13.00;99.90;;;;;;5045052;28;19991;-71
2023/06/29 04:08:05;;;;;;;;;;;13.00;99.90;;;;;;5045873;28;19984;-71
2023/06/29 04:10:32;;;;;;;;;;;13.00;99.90;;;;;;5046007;28;19921;-71
2023/06/29 04:12:58;;;;;;;;;;;13.00;99.90;;;;;;5045947;28;19921;-71
2023/06/29 04:15:25;;;;;;;;;;;13.10;99.90;;;;;;5044539;28;19955;-71
2023/06/29 04:17:53;;;;;;;;;;;13.10;99.90;;;;;;5046001;28;20108;-70
2023/06/29 04:20:19;;;;;;;;;;;13.20;99.90;;;;;;5045924;28;19927;-70
2023/06/29 04:22:46;;;;;;;;;;;13.20;99.90;;;;;;5045632;28;19921;-71
2023/06/29 04:25:13;;;;;;;;;;;13.30;99.90;;;;;;5044897;28;20224;-71
2023/06/29 04:27:39;;;;;;;;;;;13.30;99.90;;;;;;5045581;28;19921;-70
2023/06/29 04:30:07;;;;;;;;;;;13.40;99.90;;;;;;5045468;28;20212;-70
2023/06/29 04:32:34;;;;;;;;;;;13.50;99.90;;;;;;5045374;28;19951;-70
2023/06/29 04:35:03;;;;;;;;;;;13.60;99.90;;;;;;5044988;28;19928;-71
2023/06/29 04:37:40;;;;;;;;;;;13.60;99.90;;;;;;5045091;28;19921;-71
2023/06/29 04:40:09;;;;;;;;;;;13.70;99.90;;;;;;5045113;28;19935;-71
2023/06/29 04:42:43;;;;;;;;;;;13.80;99.90;;;;;;5045251;28;19943;-71
2023/06/29 04:45:12;;;;;;;;;;;13.90;99.90;;;;;;5044438;28;19963;-66
2023/06/29 04:47:40;;;;;;;;;;;13.90;99.90;;;;;;5044805;28;19921;-67
2023/06/29 04:50:09;;;;;;;;;;;14.00;99.90;;;;;;5044771;28;19921;-67
2023/06/29 04:52:36;;;;;;;;;;;14.10;99.90;;;;;;5044835;28;19995;-67
2023/06/29 04:55:03;;;;;;;;;;;14.10;99.90;;;;;;5044818;28;19986;-67
2023/06/29 04:57:30;;;;;;;;;;;14.10;99.90;;;;;;5056581;28;19983;-67
2023/06/29 04:59:57;;;;;;;;;;;14.20;99.90;;;;;;5064892;28;19952;-66
2023/06/29 05:02:24;;;;;;;;;;;14.30;99.90;;;;;;5064877;28;19927;-67
2023/06/29 05:04:51;;;;;;;;;;;14.40;99.90;;;;;;5064751;28;19927;-66
2023/06/29 05:07:19;;;;;;;;;;;14.50;99.90;;;;;;5064121;28;20176;-66
2023/06/29 05:09:45;;;;;;;;;;;14.60;99.90;;;;;;5064644;28;20182;-67
2023/06/29 05:12:14;;;;;;;;;;;14.80;99.90;;;;;;5064294;28;19956;-67
2023/06/29 05:14:41;;;;;;;;;;;14.90;99.90;;;;;;5064550;28;19975;-66
2023/06/29 05:17:07;;;;;;;;;;;15.00;99.90;;;;;;5063816;28;20141;-67
2023/06/29 05:19:34;;;;;;;;;;;15.10;99.90;;;;;;5064642;28;19988;-66
2023/06/29 05:22:01;;;;;;;;;;;15.20;99.90;;;;;;5064562;28;19988;-67
2023/06/29 05:24:29;;;;;;;;;;;15.40;99.90;;;;;;5064183;28;20147;-67
2023/06/29 05:26:56;;;;;;;;;;;15.50;99.90;;;;;;5062456;28;19927;-67
2023/06/29 05:29:23;;;;;;;;;;;15.60;99.90;;;;;;5063939;28;19921;-66
2023/06/29 05:31:49;;;;;;;;;;;15.70;99.90;;;;;;5063981;28;19959;-67
2023/06/29 05:34:16;;;;;;;;;;;15.80;99.90;;;;;;5064179;28;19921;-67
2023/06/29 05:36:42;;;;;;;;;;;15.90;99.90;;;;;;5062408;28;20227;-68
2023/06/29 05:39:09;;;;;;;;;;;16.00;99.90;;;;;;5071852;28;19949;-69
2023/06/29 05:41:38;;;;;;;;;;;16.10;99.90;;;;;;5080037;28;19931;-69
2023/06/29 05:44:06;;;;;;;;;;;16.20;99.90;;;;;;5043788;28;19996;-69
2023/06/29 05:46:33;;;;;;;;;;;16.30;99.90;;;;;;5040600;28;20201;-69
2023/06/29 05:49:00;;;;;;;;;;;16.50;99.90;;;;;;5043416;28;19952;-68
2023/06/29 05:51:26;;;;;;;;;;;16.60;99.90;;;;;;5043686;28;19993;-68
2023/06/29 05:53:53;;;;;;;;;;;16.70;99.90;;;;;;5043801;28;19921;-68
2023/06/29 05:56:20;;;;;;;;;;;16.80;99.90;;;;;;5042924;28;19921;-69
2023/06/29 05:58:48;;;;;;;;;;;17.00;99.90;;;;;;5043952;28;19927;-68
2023/06/29 06:01:14;;;;;;;;;;;17.10;99.90;;;;;;5055899;28;19921;-67
2023/06/29 06:03:41;;;;;;;;;;;17.30;99.90;;;;;;5063858;28;19929;-67
2023/06/29 06:06:08;;;;;;;;;;;17.40;99.90;;;;;;5063022;28;19992;-68
2023/06/29 06:08:34;;;;;;;;;;;17.50;99.90;;;;;;5063757;28;20101;-67
2023/06/29 06:11:01;;;;;;;;;;;17.60;99.90;;;;;;5063490;28;19948;-67
2023/06/29 06:13:33;;;;;;;;;;;17.70;99.90;;;;;;5062630;28;20004;-67
2023/06/29 06:19:04;;;;;;;;;;;18.00;99.90;;;;;;5044102;28;19967;-67
2023/06/29 06:21:31;;;;;;;;;;;18.10;99.90;;;;;;5063530;28;19988;-68
2023/06/29 06:23:57;;;;;;;;;;;18.30;99.90;;;;;;5063290;28;20255;-68
2023/06/29 06:26:25;;;;;;;;;;;18.40;99.90;;;;;;5062426;28;19927;-67
2023/06/29 06:28:55;;;;;;;;;;;18.40;99.90;;;;;;5063495;28;19924;-67
2023/06/29 06:31:22;;;;;;;;;;;18.50;99.90;;;;;;5063288;28;19921;-68
2023/06/29 06:33:56;;;;;;;;;;;18.60;99.90;;;;;;5063657;28;19920;-68
2023/06/29 06:36:25;;;;;;;;;;;18.70;99.90;;;;;;5062530;28;20283;-69
2023/06/29 06:38:52;;;;;;;;;;;18.70;99.90;;;;;;5069142;28;19921;-67
2023/06/29 06:41:18;;;;;;;;;;;18.80;99.90;;;;;;5070094;28;19952;-68
2023/06/29 06:43:45;;;;;;;;;;;18.90;99.90;;;;;;5069669;28;19927;-68
2023/06/29 06:46:12;;;;;;;;;;;18.90;99.90;;;;;;5068803;28;19921;-67
2023/06/29 06:48:39;;;;;;;;;;;18.90;99.90;;;;;;5069642;28;19967;-68
2023/06/29 06:51:05;;;;;;;;;;;19.00;99.90;;;;;;5069904;28;19956;-68
2023/06/29 06:53:33;;;;;;;;;;;19.00;99.90;;;;;;5069645;28;19959;-68
2023/06/29 06:56:00;;;;;;;;;;;19.00;99.90;;;;;;5068789;28;19921;-67
2023/06/29 06:58:27;;;;;;;;;;;19.10;99.90;;;;;;5069588;28;19920;-68
2023/06/29 07:00:53;;;;;;;;;;;19.30;99.90;;;;;;5069864;28;19927;-67
2023/06/29 07:03:20;;;;;;;;;;;19.40;99.90;;;;;;5069854;28;19959;-67
2023/06/29 07:05:46;;;;;;;;;;;19.50;99.90;;;;;;5068724;28;20267;-68
2023/06/29 07:08:13;;;;;;;;;;;19.70;99.90;;;;;;5069417;28;20322;-67
2023/06/29 07:10:41;;;;;;;;;;;19.80;99.90;;;;;;5069366;28;19920;-68
2023/06/29 07:13:08;;;;;;;;;;;19.80;99.90;;;;;;5069404;28;19921;-68
2023/06/29 07:15:34;;;;;;;;;;;19.90;99.90;;;;;;5068548;28;19928;-67
2023/06/29 07:18:01;;;;;;;;;;;20.00;99.90;;;;;;5069707;28;19952;-68
2023/06/29 07:20:28;;;;;;;;;;;20.00;99.90;;;;;;5069404;28;20267;-68
2023/06/29 07:22:54;;;;;;;;;;;20.20;99.90;;;;;;5069574;28;19959;-67
2023/06/29 07:25:21;;;;;;;;;;;20.30;99.90;;;;;;5068834;28;19948;-68
2023/06/29 07:27:49;;;;;;;;;;;20.40;99.90;;;;;;5069531;28;20111;-67
2023/06/29 07:30:16;;;;;;;;;;;20.50;99.90;;;;;;5069172;28;19988;-68
2023/06/29 07:32:43;;;;;;;;;;;20.60;99.90;;;;;;5069337;28;20000;-67
2023/06/29 07:35:10;;;;;;;;;;;20.70;99.90;;;;;;5069043;28;19971;-67
2023/06/29 07:37:37;;;;;;;;;;;20.90;99.90;;;;;;5068986;28;19988;-67
2023/06/29 07:40:05;;;;;;;;;;;20.90;99.90;;;;;;5069599;28;19952;-68
2023/06/29 07:42:32;;;;;;;;;;;21.00;99.90;;;;;;5069096;28;20254;-68
2023/06/29 07:45:00;;;;;;;;;;;21.10;99.90;;;;;;5069318;28;19964;-68
2023/06/29 07:47:26;;;;;;;;;;;21.20;99.90;;;;;;5069007;28;19927;-68
2023/06/29 07:49:53;;;;;;;;;;;21.30;99.90;;;;;;5066107;28;20276;-68
2023/06/29 07:52:19;;;;;;;;;;;21.40;99.90;;;;;;5053220;28;19980;-69
2023/06/29 07:54:46;;;;;;;;;;;21.50;99.90;;;;;;5053403;28;19980;-67
2023/06/29 07:57:13;;;;;;;;;;;21.60;99.90;;;;;;5061187;28;19959;-67
2023/06/29 07:59:39;;;;;;;;;;;21.60;99.90;;;;;;5065983;28;19921;-68
2023/06/29 08:02:08;;;;;;;;;;;21.70;99.90;;;;;;5066013;28;19984;-67
2023/06/29 08:04:34;;;;;;;;;;;21.70;99.90;;;;;;5065834;28;19943;-68
2023/06/29 08:07:01;;;;;;;;;;;21.80;99.90;;;;;;5065058;28;19925;-68
2023/06/29 08:09:28;;;;;;;;;;;21.90;99.90;;;;;;5065660;28;20234;-67
2023/06/29 08:11:54;;;;;;;;;;;21.90;99.90;;;;;;5065638;28;19992;-67
2023/06/29 08:14:21;;;;;;;;;;;22.00;99.90;;;;;;5065953;28;19980;-68
2023/06/29 08:16:47;;;;;;;;;;;22.10;99.90;;;;;;5064612;28;19963;-67
2023/06/29 08:19:15;;;;;;;;;;;22.10;99.90;;;;;;5065731;28;19996;-67
2023/06/29 08:21:43;;;;;;;;;;;22.20;99.90;;;;;;5065615;28;20124;-68
2023/06/29 08:24:09;;;;;;;;;;;22.30;99.90;;;;;;5065643;28;19921;-68
2023/06/29 08:26:36;;;;;;;;;;;22.40;99.90;;;;;;5064764;28;19952;-67
2023/06/29 08:29:02;;;;;;;;;;;22.40;99.90;;;;;;5065162;28;20251;-67
2023/06/29 08:31:29;;;;;;;;;;;22.40;99.90;;;;;;5065517;28;19996;-67
2023/06/29 08:33:56;;;;;;;;;;;22.50;99.90;;;;;;5065185;28;20232;-67
2023/06/29 08:36:25;;;;;;;;;;;22.60;99.90;;;;;;5064279;28;19984;-68
2023/06/29 08:38:52;;;;;;;;;;;22.60;99.90;;;;;;5065355;28;20116;-68
2023/06/29 08:41:18;;;;;;;;;;;22.70;99.90;;;;;;5065229;28;19921;-68
2023/06/29 08:43:45;;;;;;;;;;;22.70;99.90;;;;;;5065478;28;19944;-68
2023/06/29 08:46:12;;;;;;;;;;;22.80;99.90;;;;;;5064497;28;19920;-67
2023/06/29 08:48:42;;;;;;;;;;;22.90;99.90;;;;;;5065150;28;19996;-68
2023/06/29 08:51:10;;;;;;;;;;;22.90;99.90;;;;;;5064873;28;20254;-67
2023/06/29 08:53:40;;;;;;;;;;;23.00;99.90;;;;;;5064932;28;20189;-69
2023/06/29 08:56:07;;;;;;;;;;;23.10;99.90;;;;;;5053564;28;19928;-68
2023/06/29 08:58:34;;;;;;;;;;;23.10;99.90;;;;;;5044648;28;20208;-68
2023/06/29 09:01:00;;;;;;;;;;;23.20;99.90;;;;;;5051083;28;19984;-68
2023/06/29 09:03:28;;;;;;;;;;;23.20;99.90;;;;;;5063483;28;19929;-68
2023/06/29 09:05:55;;;;;;;;;;;23.30;99.90;;;;;;5052721;28;19921;-68
2023/06/29 09:08:23;;;;;;;;;;;23.30;99.90;;;;;;5044258;28;19988;-68
2023/06/29 09:10:51;;;;;;;;;;;23.40;99.90;;;;;;5043595;28;19928;-68
2023/06/29 09:13:18;;;;;;;;;;;23.50;99.90;;;;;;5044398;28;20240;-69
2023/06/29 09:15:48;;;;;;;;;;;23.60;99.90;;;;;;5055197;28;20143;-68
2023/06/29 09:18:15;;;;;;;;;;;23.70;99.90;;;;;;5058123;28;19928;-68
2023/06/29 09:20:43;;;;;;;;;;;23.80;99.90;;;;;;5059933;28;20367;-68
2023/06/29 09:23:13;;;;;;;;;;;23.90;99.90;;;;;;5064553;28;19925;-68
2023/06/29 09:25:40;;;;;;;;;;;23.90;99.90;;;;;;5051365;28;19963;-68
2023/06/29 09:28:08;;;;;;;;;;;24.00;99.90;;;;;;5044611;28;19964;-69
2023/06/29 09:30:38;;;;;;;;;;;24.00;99.90;;;;;;5042695;28;19928;-68
2023/06/29 09:33:09;;;;;;;;;;;24.00;99.90;;;;;;5064080;28;19921;-69
2023/06/29 09:35:37;;;;;;;;;;;24.20;99.90;;;;;;5063169;28;20324;-68
2023/06/29 09:38:03;;;;;;;;;;;24.30;99.90;;;;;;5064050;28;20176;-67
2023/06/29 09:40:30;;;;;;;;;;;24.40;99.90;;;;;;5064153;28;19958;-68
2023/06/29 09:42:57;;;;;;;;;;;24.50;99.90;;;;;;5064190;28;19920;-68
2023/06/29 09:45:27;;;;;;;;;;;24.50;99.90;;;;;;5063082;28;19929;-68
2023/06/29 09:47:54;;;;;;;;;;;24.60;99.90;;;;;;5063699;28;19921;-69
2023/06/29 09:50:21;;;;;;;;;;;24.70;99.90;;;;;;5063724;28;19983;-68
2023/06/29 09:52:50;;;;;;;;;;;24.80;99.90;;;;;;5063670;28;19920;-68
2023/06/29 09:55:17;;;;;;;;;;;24.80;99.90;;;;;;5063320;28;19921;-68
2023/06/29 09:57:45;;;;;;;;;;;24.80;99.90;;;;;;5063894;28;19921;-69
2023/06/29 10:00:13;;;;;;;;;;;25.00;99.90;;;;;;5063906;28;19952;-69
2023/06/29 10:02:41;;;;;;;;;;;25.20;99.90;;;;;;5062074;28;19984;-69
2023/06/29 10:05:08;;;;;;;;;;;25.30;99.90;;;;;;5049292;28;19980;-68
2023/06/29 10:07:36;;;;;;;;;;;25.40;99.90;;;;;;5063191;28;19943;-68
2023/06/29 10:10:04;;;;;;;;;;;25.50;99.90;;;;;;5063647;28;19996;-68
2023/06/29 10:12:31;;;;;;;;;;;25.50;99.90;;;;;;5042930;28;20172;-69
2023/06/29 10:15:00;;;;;;;;;;;25.60;99.90;;;;;;5043072;28;19921;-68
2023/06/29 10:17:31;;;;;;;;;;;25.70;99.90;;;;;;5052431;28;19927;-68
2023/06/29 10:20:00;;;;;;;;;;;25.80;99.80;;;;;;5061965;28;19921;-68
2023/06/29 10:22:27;;;;;;;;;;;25.90;99.20;;;;;;5063300;28;19921;-69
2023/06/29 10:24:55;;;;;;;;;;;26.00;99.70;;;;;;5063357;28;20160;-69
2023/06/29 10:27:22;;;;;;;;;;;26.10;99.00;;;;;;5062560;28;19996;-69
2023/06/29 10:29:50;;;;;;;;;;;26.10;99.30;;;;;;5063551;28;19988;-68
2023/06/29 10:32:38;;;;;;;;;;;26.20;99.00;;;;;;5062159;28;19921;-68
2023/06/29 10:35:07;;;;;;;;;;;26.40;99.10;;;;;;5054299;28;20169;-69
2023/06/29 10:37:34;;;;;;;;;;;26.50;98.40;;;;;;5061968;28;19921;-70
2023/06/29 10:40:04;;;;;;;;;;;26.70;98.00;;;;;;5063097;28;20042;-68
2023/06/29 10:42:51;;;;;;;;;;;26.80;98.40;;;;;;5062114;28;20231;-68
2023/06/29 10:45:30;;;;;;;;;;;26.80;97.60;;;;;;5059677;28;19921;-68
2023/06/29 10:48:01;;;;;;;;;;;26.90;97.10;;;;;;5062754;28;19921;-68
2023/06/29 10:50:30;;;;;;;;;;;26.90;96.70;;;;;;5062900;28;19956;-68
2023/06/29 10:52:59;;;;;;;;;;;27.00;96.60;;;;;;5062799;28;19988;-68
2023/06/29 10:58:41;;;;;;;;;;;27.20;96.00;;;;;;4951443;28;19929;-68
2023/06/29 11:01:07;;;;;;;;;;;27.40;95.40;;;;;;5053629;28;19994;-68
2023/06/29 11:03:34;;;;;;;;;;;27.30;96.50;;;;;;5054919;28;19980;-68
2023/06/29 11:06:11;;;;;;;;;;;27.50;96.10;;;;;;5055214;28;19963;-68
2023/06/29 11:08:44;;;;;;;;;;;27.60;95.40;;;;;;5058552;28;19921;-69
2023/06/29 11:11:16;;;;;;;;;;;27.70;95.20;;;;;;5053943;28;19921;-68
2023/06/29 11:13:44;;;;;;;;;;;27.90;95.00;;;;;;5062880;28;19927;-69
2023/06/29 11:16:13;;;;;;;;;;;28.00;95.30;;;;;;5059405;28;19928;-68
2023/06/29 11:18:47;;;;;;;;;;;28.00;94.40;;;;;;5062602;28;20239;-69
2023/06/29 11:21:15;;;;;;;;;;;28.10;94.10;;;;;;5048534;28;19921;-68
2023/06/29 11:23:49;;;;;;;;;;;28.20;94.40;;;;;;5062570;28;19920;-69
2023/06/29 11:26:16;;;;;;;;;;;28.30;93.50;;;;;;5048176;28;19957;-68
2023/06/29 11:28:43;;;;;;;;;;;28.50;93.90;;;;;;5066389;28;19921;-69
2023/06/29 11:31:10;;;;;;;;;;;28.70;94.00;;;;;;5057585;28;20212;-69
2023/06/29 11:33:46;;;;;;;;;;;29.00;93.40;;;;;;5066548;28;19995;-68
2023/06/29 11:36:13;;;;;;;;;;;29.10;92.60;;;;;;5065438;28;19979;-69
2023/06/29 11:38:41;;;;;;;;;;;29.10;92.40;;;;;;5066361;28;19952;-68
2023/06/29 11:41:07;;;;;;;;;;;28.90;92.50;;;;;;5066003;28;20260;-68
2023/06/29 11:43:34;;;;;;;;;;;28.80;92.50;;;;;;5066353;28;19984;-69
2023/06/29 11:46:01;;;;;;;;;;;28.60;92.40;;;;;;5065216;28;19976;-68
2023/06/29 11:48:29;;;;;;;;;;;28.50;92.10;;;;;;5065933;28;20368;-68
2023/06/29 11:50:59;;;;;;;;;;;28.30;92.30;;;;;;5065915;28;19920;-68
2023/06/29 11:53:25;;;;;;;;;;;28.10;92.80;;;;;;5065105;28;20292;-69
2023/06/29 11:55:54;;;;;;;;;;;28.00;92.10;;;;;;5057814;28;19987;-68
2023/06/29 11:58:21;;;;;;;;;;;28.00;92.50;;;;;;5061101;28;19988;-68
2023/06/29 12:00:55;;;;;;;;;;;28.10;92.70;;;;;;5065802;28;19921;-68
2023/06/29 12:03:21;;;;;;;;;;;28.20;92.90;;;;;;5065965;28;19920;-68
2023/06/29 12:05:48;;;;;;;;;;;28.30;92.50;;;;;;5065166;28;19987;-68
2023/06/29 12:08:15;;;;;;;;;;;28.40;93.10;;;;;;5051072;28;19963;-68
2023/06/29 12:10:41;;;;;;;;;;;28.70;93.30;;;;;;5045933;28;19928;-68
2023/06/29 12:13:13;;;;;;;;;;;28.90;92.80;;;;;;5057099;28;20264;-68
2023/06/29 12:15:42;;;;;;;;;;;29.10;92.50;;;;;;5064999;28;20115;-68
2023/06/29 12:18:11;;;;;;;;;;;29.40;91.90;;;;;;5063890;28;19927;-69
2023/06/29 12:20:39;;;;;;;;;;;29.50;91.50;;;;;;5065806;28;19988;-68
2023/06/29 12:23:05;;;;;;;;;;;29.40;91.70;;;;;;5065713;28;19927;-69
2023/06/29 12:25:32;;;;;;;;;;;29.50;91.40;;;;;;5064932;28;20260;-68
2023/06/29 12:27:59;;;;;;;;;;;29.60;91.60;;;;;;5065608;28;19943;-69
2023/06/29 12:30:27;;;;;;;;;;;29.80;91.40;;;;;;5065233;28;20228;-68
2023/06/29 12:32:54;;;;;;;;;;;29.90;90.70;;;;;;5065497;28;19927;-69
2023/06/29 12:35:21;;;;;;;;;;;30.10;90.60;;;;;;5064301;28;19936;-68
2023/06/29 12:37:47;;;;;;;;;;;30.30;90.30;;;;;;5065326;28;20003;-68
2023/06/29 12:40:15;;;;;;;;;;;30.30;90.30;;;;;;5065363;28;19927;-68
2023/06/29 12:42:41;;;;;;;;;;;30.20;90.30;;;;;;5065032;28;19920;-68
2023/06/29 12:45:09;;;;;;;;;;;30.00;89.90;;;;;;5064701;28;19963;-69
2023/06/29 12:47:37;;;;;;;;;;;30.00;90.20;;;;;;5064772;28;19921;-68
2023/06/29 12:50:04;;;;;;;;;;;30.20;89.70;;;;;;5064990;28;20117;-68
2023/06/29 12:52:31;;;;;;;;;;;30.40;89.40;;;;;;5064691;28;20268;-68
2023/06/29 12:54:58;;;;;;;;;;;30.60;89.90;;;;;;5064707;28;19952;-68
2023/06/29 12:57:25;;;;;;;;;;;30.70;90.60;;;;;;5064345;28;19920;-68
2023/06/29 12:59:52;;;;;;;;;;;30.80;89.50;;;;;;5063891;28;19958;-67
2023/06/29 13:02:19;;;;;;;;;;;30.90;88.90;;;;;;5063911;28;19921;-68
2023/06/29 13:04:47;;;;;;;;;;;30.90;87.50;;;;;;5079576;28;20239;-68
2023/06/29 13:07:17;;;;;;;;;;;30.90;88.60;;;;;;5081986;28;19920;-68
2023/06/29 13:09:44;;;;;;;;;;;30.70;88.40;;;;;;5064769;28;19928;-68
2023/06/29 13:12:11;;;;;;;;;;;30.60;88.60;;;;;;5064803;28;19920;-68
2023/06/29 13:14:38;;;;;;;;;;;30.60;89.10;;;;;;5064633;28;19992;-68
2023/06/29 13:17:05;;;;;;;;;;;30.70;89.20;;;;;;5058547;28;19959;-68
2023/06/29 13:19:33;;;;;;;;;;;30.90;87.60;;;;;;5067579;28;19979;-68
2023/06/29 13:22:03;;;;;;;;;;;30.90;88.00;;;;;;5084301;28;19921;-68
2023/06/29 13:24:29;;;;;;;;;;;30.80;87.50;;;;;;5080890;28;19920;-68
2023/06/29 13:26:56;;;;;;;;;;;30.70;87.90;;;;;;5063873;28;19988;-68
2023/06/29 13:29:23;;;;;;;;;;;30.60;87.30;;;;;;5050997;28;19983;-67
2023/06/29 13:31:50;;;;;;;;;;;30.60;87.30;;;;;;5064089;28;20197;-68
2023/06/29 13:34:16;;;;;;;;;;;30.60;88.20;;;;;;5063794;28;19921;-68
2023/06/29 13:36:43;;;;;;;;;;;30.40;87.70;;;;;;5062815;28;20155;-68
2023/06/29 13:39:11;;;;;;;;;;;30.40;87.40;;;;;;5074585;28;19921;-68
2023/06/29 13:41:38;;;;;;;;;;;30.30;88.00;;;;;;5064030;28;19948;-67
2023/06/29 13:44:05;;;;;;;;;;;30.10;89.10;;;;;;5063991;28;19927;-67
2023/06/29 13:46:32;;;;;;;;;;;30.00;87.70;;;;;;5062550;28;19921;-67
2023/06/29 13:48:59;;;;;;;;;;;29.80;88.50;;;;;;5048501;28;19920;-67
2023/06/29 13:51:28;;;;;;;;;;;29.70;89.10;;;;;;5049477;28;19984;-67
2023/06/29 13:53:55;;;;;;;;;;;29.70;88.90;;;;;;5073381;28;19920;-67
2023/06/29 13:56:23;;;;;;;;;;;29.50;88.50;;;;;;5056410;28;20260;-67
2023/06/29 13:58:51;;;;;;;;;;;29.50;89.30;;;;;;5063195;28;19925;-67
2023/06/29 14:01:17;;;;;;;;;;;29.30;89.20;;;;;;5063655;28;19927;-66
2023/06/29 14:03:44;;;;;;;;;;;29.30;89.80;;;;;;5063718;28;19933;-67
2023/06/29 14:06:12;;;;;;;;;;;29.20;89.20;;;;;;5066979;28;19959;-67
2023/06/29 14:08:39;;;;;;;;;;;29.10;89.80;;;;;;5060751;28;20118;-67
2023/06/29 14:11:06;;;;;;;;;;;29.00;89.50;;;;;;5060227;28;19920;-67
2023/06/29 14:13:34;;;;;;;;;;;28.80;90.00;;;;;;5059270;28;20121;-67
2023/06/29 14:16:01;;;;;;;;;;;28.80;89.90;;;;;;5042326;28;19921;-67
2023/06/29 14:18:29;;;;;;;;;;;28.80;89.40;;;;;;5065541;28;19921;-67
2023/06/29 14:20:55;;;;;;;;;;;28.70;90.10;;;;;;5063533;28;19921;-67
2023/06/29 14:23:23;;;;;;;;;;;28.70;90.10;;;;;;5069297;28;19963;-67
2023/06/29 14:25:49;;;;;;;;;;;28.60;90.10;;;;;;5082540;28;19943;-67